sensor_id;sensor_type;location;lat;lon;timestamp;P1;durP1;ratioP1;P2;durP2;ratioP2
61911;SDS011;49973;52.084;5.412;2023-08-01T00:01:22;5.30;;;2.57;;
61911;SDS011;49973;52.084;5.412;2023-08-01T00:03:51;9.63;;;2.80;;
61911;SDS011;49973;52.084;5.412;2023-08-01T00:06:21;6.63;;;2.43;;
61911;SDS011;49973;52.084;5.412;2023-08-01T00:08:51;10.23;;;2.57;;
61911;SDS011;49973;52.084;5.412;2023-08-01T00:11:20;9.20;;;1.73;;
61911;SDS011;49973;52.084;5.412;2023-08-01T00:13:49;4.07;;;1.83;;
61911;SDS011;49973;52.084;5.412;2023-08-01T00:16:17;4.10;;;2.00;;
61911;SDS011;49973;52.084;5.412;2023-08-01T00:18:46;5.73;;;2.20;;
61911;SDS011;49973;52.084;5.412;2023-08-01T00:21:15;4.00;;;1.93;;
61911;SDS011;49973;52.084;5.412;2023-08-01T00:23:45;3.37;;;1.60;;
61911;SDS011;49973;52.084;5.412;2023-08-01T00:26:14;3.50;;;2.17;;
61911;SDS011;49973;52.084;5.412;2023-08-01T00:28:43;4.93;;;1.90;;
61911;SDS011;49973;52.084;5.412;2023-08-01T00:31:11;8.53;;;2.57;;
61911;SDS011;49973;52.084;5.412;2023-08-01T00:33:40;4.37;;;2.10;;
61911;SDS011;49973;52.084;5.412;2023-08-01T00:36:09;4.97;;;1.97;;
61911;SDS011;49973;52.084;5.412;2023-08-01T00:38:38;6.70;;;2.00;;
61911;SDS011;49973;52.084;5.412;2023-08-01T00:41:10;3.53;;;2.10;;
61911;SDS011;49973;52.084;5.412;2023-08-01T00:43:39;2.40;;;2.07;;
61911;SDS011;49973;52.084;5.412;2023-08-01T00:46:08;3.27;;;2.00;;
61911;SDS011;49973;52.084;5.412;2023-08-01T00:48:37;13.67;;;2.50;;
61911;SDS011;49973;52.084;5.412;2023-08-01T00:51:06;13.87;;;2.17;;
61911;SDS011;49973;52.084;5.412;2023-08-01T00:53:36;8.87;;;2.73;;
61911;SDS011;49973;52.084;5.412;2023-08-01T00:56:05;7.77;;;3.37;;
61911;SDS011;49973;52.084;5.412;2023-08-01T00:58:35;7.43;;;3.00;;
61911;SDS011;49973;52.084;5.412;2023-08-01T01:01:04;10.97;;;3.30;;
61911;SDS011;49973;52.084;5.412;2023-08-01T01:03:33;9.00;;;2.60;;
61911;SDS011;49973;52.084;5.412;2023-08-01T01:06:05;5.00;;;2.73;;
61911;SDS011;49973;52.084;5.412;2023-08-01T01:08:39;3.83;;;2.43;;
61911;SDS011;49973;52.084;5.412;2023-08-01T01:11:08;7.90;;;3.20;;
61911;SDS011;49973;52.084;5.412;2023-08-01T01:13:38;7.03;;;2.83;;
61911;SDS011;49973;52.084;5.412;2023-08-01T01:16:07;8.17;;;3.60;;
61911;SDS011;49973;52.084;5.412;2023-08-01T01:18:36;12.07;;;3.40;;
61911;SDS011;49973;52.084;5.412;2023-08-01T01:21:06;5.63;;;3.03;;
61911;SDS011;49973;52.084;5.412;2023-08-01T01:23:35;10.37;;;3.30;;
61911;SDS011;49973;52.084;5.412;2023-08-01T01:26:05;7.70;;;3.33;;
61911;SDS011;49973;52.084;5.412;2023-08-01T01:28:35;10.40;;;3.40;;
61911;SDS011;49973;52.084;5.412;2023-08-01T01:31:05;8.37;;;3.60;;
61911;SDS011;49973;52.084;5.412;2023-08-01T01:33:34;8.17;;;3.60;;
61911;SDS011;49973;52.084;5.412;2023-08-01T01:36:03;14.40;;;3.93;;
61911;SDS011;49973;52.084;5.412;2023-08-01T01:38:36;10.70;;;3.63;;
61911;SDS011;49973;52.084;5.412;2023-08-01T01:41:04;17.40;;;4.03;;
61911;SDS011;49973;52.084;5.412;2023-08-01T01:43:33;13.93;;;3.93;;
61911;SDS011;49973;52.084;5.412;2023-08-01T01:46:02;16.13;;;4.83;;
61911;SDS011;49973;52.084;5.412;2023-08-01T01:48:30;11.37;;;4.07;;
61911;SDS011;49973;52.084;5.412;2023-08-01T01:50:59;15.63;;;4.33;;
61911;SDS011;49973;52.084;5.412;2023-08-01T01:53:28;13.70;;;4.33;;
61911;SDS011;49973;52.084;5.412;2023-08-01T01:55:58;8.73;;;4.43;;
61911;SDS011;49973;52.084;5.412;2023-08-01T01:58:27;14.60;;;5.10;;
61911;SDS011;49973;52.084;5.412;2023-08-01T02:00:55;11.40;;;5.10;;
61911;SDS011;49973;52.084;5.412;2023-08-01T02:03:24;8.83;;;4.60;;
61911;SDS011;49973;52.084;5.412;2023-08-01T02:05:53;18.47;;;6.03;;
61911;SDS011;49973;52.084;5.412;2023-08-01T02:08:22;17.17;;;5.33;;
61911;SDS011;49973;52.084;5.412;2023-08-01T02:10:50;14.20;;;5.43;;
61911;SDS011;49973;52.084;5.412;2023-08-01T02:13:21;19.93;;;6.43;;
61911;SDS011;49973;52.084;5.412;2023-08-01T02:15:51;17.83;;;5.20;;
61911;SDS011;49973;52.084;5.412;2023-08-01T02:18:19;13.90;;;5.30;;
61911;SDS011;49973;52.084;5.412;2023-08-01T02:20:49;19.57;;;5.80;;
61911;SDS011;49973;52.084;5.412;2023-08-01T02:23:17;14.23;;;5.33;;
61911;SDS011;49973;52.084;5.412;2023-08-01T02:25:46;15.37;;;5.60;;
61911;SDS011;49973;52.084;5.412;2023-08-01T02:28:15;13.63;;;5.90;;
61911;SDS011;49973;52.084;5.412;2023-08-01T02:30:45;14.87;;;5.73;;
61911;SDS011;49973;52.084;5.412;2023-08-01T02:33:14;14.63;;;5.70;;
61911;SDS011;49973;52.084;5.412;2023-08-01T02:35:43;19.93;;;5.07;;
61911;SDS011;49973;52.084;5.412;2023-08-01T02:38:13;15.80;;;5.60;;
61911;SDS011;49973;52.084;5.412;2023-08-01T02:40:42;18.40;;;5.30;;
61911;SDS011;49973;52.084;5.412;2023-08-01T02:43:11;22.93;;;5.83;;
61911;SDS011;49973;52.084;5.412;2023-08-01T02:45:41;18.97;;;5.53;;
61911;SDS011;49973;52.084;5.412;2023-08-01T02:48:12;16.47;;;5.63;;
61911;SDS011;49973;52.084;5.412;2023-08-01T02:50:41;17.87;;;6.10;;
61911;SDS011;49973;52.084;5.412;2023-08-01T02:53:09;20.70;;;5.50;;
61911;SDS011;49973;52.084;5.412;2023-08-01T02:55:41;20.63;;;6.50;;
61911;SDS011;49973;52.084;5.412;2023-08-01T02:58:12;14.43;;;4.97;;
61911;SDS011;49973;52.084;5.412;2023-08-01T03:00:41;19.40;;;6.00;;
61911;SDS011;49973;52.084;5.412;2023-08-01T03:03:10;21.67;;;6.03;;
61911;SDS011;49973;52.084;5.412;2023-08-01T03:05:40;10.47;;;5.80;;
61911;SDS011;49973;52.084;5.412;2023-08-01T03:08:09;16.00;;;5.67;;
61911;SDS011;49973;52.084;5.412;2023-08-01T03:10:38;12.13;;;5.17;;
61911;SDS011;49973;52.084;5.412;2023-08-01T03:13:07;18.00;;;5.63;;
61911;SDS011;49973;52.084;5.412;2023-08-01T03:15:37;19.43;;;4.20;;
61911;SDS011;49973;52.084;5.412;2023-08-01T03:18:05;8.17;;;3.60;;
61911;SDS011;49973;52.084;5.412;2023-08-01T03:20:34;8.27;;;3.67;;
61911;SDS011;49973;52.084;5.412;2023-08-01T03:23:05;14.60;;;3.43;;
61911;SDS011;49973;52.084;5.412;2023-08-01T03:25:33;9.67;;;3.40;;
61911;SDS011;49973;52.084;5.412;2023-08-01T03:28:03;15.80;;;4.00;;
61911;SDS011;49973;52.084;5.412;2023-08-01T03:30:32;12.43;;;3.70;;
61911;SDS011;49973;52.084;5.412;2023-08-01T03:33:01;10.70;;;3.37;;
61911;SDS011;49973;52.084;5.412;2023-08-01T03:35:30;8.63;;;2.90;;
61911;SDS011;49973;52.084;5.412;2023-08-01T03:37:59;9.00;;;2.87;;
61911;SDS011;49973;52.084;5.412;2023-08-01T03:40:30;9.87;;;3.67;;
61911;SDS011;49973;52.084;5.412;2023-08-01T03:42:59;5.93;;;3.23;;
61911;SDS011;49973;52.084;5.412;2023-08-01T03:45:28;9.90;;;3.30;;
61911;SDS011;49973;52.084;5.412;2023-08-01T03:47:57;11.87;;;3.13;;
61911;SDS011;49973;52.084;5.412;2023-08-01T03:50:26;22.30;;;4.77;;
61911;SDS011;49973;52.084;5.412;2023-08-01T03:52:54;19.10;;;3.77;;
61911;SDS011;49973;52.084;5.412;2023-08-01T03:55:23;15.80;;;3.90;;
61911;SDS011;49973;52.084;5.412;2023-08-01T03:57:53;9.20;;;2.57;;
61911;SDS011;49973;52.084;5.412;2023-08-01T04:00:22;18.47;;;3.17;;
61911;SDS011;49973;52.084;5.412;2023-08-01T04:02:54;11.03;;;2.57;;
61911;SDS011;49973;52.084;5.412;2023-08-01T04:05:23;16.17;;;3.00;;
61911;SDS011;49973;52.084;5.412;2023-08-01T04:07:52;6.03;;;2.67;;
61911;SDS011;49973;52.084;5.412;2023-08-01T04:10:22;16.67;;;3.47;;
61911;SDS011;49973;52.084;5.412;2023-08-01T04:12:51;11.23;;;4.03;;
61911;SDS011;49973;52.084;5.412;2023-08-01T04:15:21;10.13;;;3.33;;
61911;SDS011;49973;52.084;5.412;2023-08-01T04:17:50;9.80;;;2.83;;
61911;SDS011;49973;52.084;5.412;2023-08-01T04:20:19;9.43;;;3.23;;
61911;SDS011;49973;52.084;5.412;2023-08-01T04:22:47;11.90;;;4.23;;
61911;SDS011;49973;52.084;5.412;2023-08-01T04:25:16;9.13;;;3.50;;
61911;SDS011;49973;52.084;5.412;2023-08-01T04:27:45;9.97;;;3.60;;
61911;SDS011;49973;52.084;5.412;2023-08-01T04:30:14;9.50;;;3.20;;
61911;SDS011;49973;52.084;5.412;2023-08-01T04:32:44;17.23;;;4.57;;
61911;SDS011;49973;52.084;5.412;2023-08-01T04:35:13;16.17;;;3.87;;
61911;SDS011;49973;52.084;5.412;2023-08-01T04:37:42;10.23;;;4.20;;
61911;SDS011;49973;52.084;5.412;2023-08-01T04:40:12;10.53;;;4.13;;
61911;SDS011;49973;52.084;5.412;2023-08-01T04:42:41;24.70;;;4.70;;
61911;SDS011;49973;52.084;5.412;2023-08-01T04:45:10;12.97;;;3.83;;
61911;SDS011;49973;52.084;5.412;2023-08-01T04:47:39;10.87;;;4.17;;
61911;SDS011;49973;52.084;5.412;2023-08-01T04:50:09;12.83;;;3.87;;
61911;SDS011;49973;52.084;5.412;2023-08-01T04:52:38;14.77;;;3.73;;
61911;SDS011;49973;52.084;5.412;2023-08-01T04:55:07;17.57;;;4.43;;
61911;SDS011;49973;52.084;5.412;2023-08-01T04:57:36;12.13;;;4.30;;
61911;SDS011;49973;52.084;5.412;2023-08-01T05:00:05;14.83;;;4.20;;
61911;SDS011;49973;52.084;5.412;2023-08-01T05:02:35;17.80;;;4.43;;
61911;SDS011;49973;52.084;5.412;2023-08-01T05:05:04;10.60;;;4.30;;
61911;SDS011;49973;52.084;5.412;2023-08-01T05:07:35;12.37;;;4.63;;
61911;SDS011;49973;52.084;5.412;2023-08-01T05:10:04;14.23;;;4.70;;
61911;SDS011;49973;52.084;5.412;2023-08-01T05:12:33;22.30;;;5.50;;
61911;SDS011;49973;52.084;5.412;2023-08-01T05:15:01;15.03;;;4.80;;
61911;SDS011;49973;52.084;5.412;2023-08-01T05:17:30;20.03;;;4.53;;
61911;SDS011;49973;52.084;5.412;2023-08-01T05:19:59;22.50;;;4.50;;
61911;SDS011;49973;52.084;5.412;2023-08-01T05:22:30;22.80;;;4.97;;
61911;SDS011;49973;52.084;5.412;2023-08-01T05:25:00;15.77;;;4.33;;
61911;SDS011;49973;52.084;5.412;2023-08-01T05:27:29;12.53;;;4.10;;
61911;SDS011;49973;52.084;5.412;2023-08-01T05:29:57;15.83;;;4.13;;
61911;SDS011;49973;52.084;5.412;2023-08-01T05:32:26;18.97;;;4.50;;
61911;SDS011;49973;52.084;5.412;2023-08-01T05:34:55;17.00;;;4.33;;
61911;SDS011;49973;52.084;5.412;2023-08-01T05:37:24;15.10;;;3.93;;
61911;SDS011;49973;52.084;5.412;2023-08-01T05:39:52;18.27;;;4.17;;
61911;SDS011;49973;52.084;5.412;2023-08-01T05:42:23;15.53;;;3.87;;
61911;SDS011;49973;52.084;5.412;2023-08-01T05:44:52;10.13;;;3.57;;
61911;SDS011;49973;52.084;5.412;2023-08-01T05:47:20;9.67;;;3.97;;
61911;SDS011;49973;52.084;5.412;2023-08-01T05:49:50;26.70;;;4.80;;
61911;SDS011;49973;52.084;5.412;2023-08-01T05:52:19;7.30;;;3.63;;
61911;SDS011;49973;52.084;5.412;2023-08-01T05:54:48;13.10;;;4.30;;
61911;SDS011;49973;52.084;5.412;2023-08-01T05:57:16;19.03;;;3.93;;
61911;SDS011;49973;52.084;5.412;2023-08-01T05:59:46;20.60;;;4.17;;
61911;SDS011;49973;52.084;5.412;2023-08-01T06:02:15;12.93;;;4.00;;
61911;SDS011;49973;52.084;5.412;2023-08-01T06:04:44;26.37;;;4.10;;
61911;SDS011;49973;52.084;5.412;2023-08-01T06:07:12;9.17;;;3.70;;
61911;SDS011;49973;52.084;5.412;2023-08-01T06:09:41;17.33;;;4.10;;
61911;SDS011;49973;52.084;5.412;2023-08-01T06:12:10;13.07;;;3.93;;
61911;SDS011;49973;52.084;5.412;2023-08-01T06:14:38;16.27;;;3.93;;
61911;SDS011;49973;52.084;5.412;2023-08-01T06:17:09;7.83;;;3.03;;
61911;SDS011;49973;52.084;5.412;2023-08-01T06:19:37;9.33;;;3.13;;
61911;SDS011;49973;52.084;5.412;2023-08-01T06:22:06;14.90;;;3.53;;
61911;SDS011;49973;52.084;5.412;2023-08-01T06:24:35;14.10;;;3.37;;
61911;SDS011;49973;52.084;5.412;2023-08-01T06:27:04;12.73;;;3.00;;
61911;SDS011;49973;52.084;5.412;2023-08-01T06:29:33;14.77;;;3.30;;
61911;SDS011;49973;52.084;5.412;2023-08-01T06:32:02;9.03;;;3.30;;
61911;SDS011;49973;52.084;5.412;2023-08-01T06:34:32;9.50;;;2.87;;
61911;SDS011;49973;52.084;5.412;2023-08-01T06:37:01;9.80;;;2.27;;
61911;SDS011;49973;52.084;5.412;2023-08-01T06:39:30;13.63;;;2.63;;
61911;SDS011;49973;52.084;5.412;2023-08-01T06:41:59;9.97;;;2.77;;
61911;SDS011;49973;52.084;5.412;2023-08-01T06:44:28;5.53;;;2.40;;
61911;SDS011;49973;52.084;5.412;2023-08-01T06:46:57;12.23;;;2.40;;
61911;SDS011;49973;52.084;5.412;2023-08-01T06:49:25;10.87;;;3.20;;
61911;SDS011;49973;52.084;5.412;2023-08-01T06:51:55;4.57;;;2.37;;
61911;SDS011;49973;52.084;5.412;2023-08-01T06:54:24;9.23;;;2.37;;
61911;SDS011;49973;52.084;5.412;2023-08-01T06:56:53;5.70;;;2.57;;
61911;SDS011;49973;52.084;5.412;2023-08-01T06:59:22;9.03;;;2.77;;
61911;SDS011;49973;52.084;5.412;2023-08-01T07:01:51;7.97;;;2.40;;
61911;SDS011;49973;52.084;5.412;2023-08-01T07:04:20;8.10;;;2.33;;
61911;SDS011;49973;52.084;5.412;2023-08-01T07:06:48;14.77;;;3.33;;
61911;SDS011;49973;52.084;5.412;2023-08-01T07:09:18;6.80;;;2.73;;
61911;SDS011;49973;52.084;5.412;2023-08-01T07:11:47;3.60;;;2.20;;
61911;SDS011;49973;52.084;5.412;2023-08-01T07:14:16;10.30;;;2.83;;
61911;SDS011;49973;52.084;5.412;2023-08-01T07:16:44;8.07;;;2.63;;
61911;SDS011;49973;52.084;5.412;2023-08-01T07:19:13;7.40;;;2.67;;
61911;SDS011;49973;52.084;5.412;2023-08-01T07:21:42;6.83;;;1.87;;
61911;SDS011;49973;52.084;5.412;2023-08-01T07:24:12;4.13;;;2.13;;
61911;SDS011;49973;52.084;5.412;2023-08-01T07:26:43;6.80;;;1.90;;
61911;SDS011;49973;52.084;5.412;2023-08-01T07:29:11;9.70;;;2.73;;
61911;SDS011;49973;52.084;5.412;2023-08-01T07:31:42;8.03;;;2.83;;
61911;SDS011;49973;52.084;5.412;2023-08-01T07:34:13;9.50;;;2.77;;
61911;SDS011;49973;52.084;5.412;2023-08-01T07:36:42;7.83;;;2.57;;
61911;SDS011;49973;52.084;5.412;2023-08-01T07:39:10;5.57;;;2.17;;
61911;SDS011;49973;52.084;5.412;2023-08-01T07:41:39;6.57;;;2.03;;
61911;SDS011;49973;52.084;5.412;2023-08-01T07:44:09;7.40;;;2.03;;
61911;SDS011;49973;52.084;5.412;2023-08-01T07:46:38;9.93;;;2.77;;
61911;SDS011;49973;52.084;5.412;2023-08-01T07:49:07;5.73;;;2.47;;
61911;SDS011;49973;52.084;5.412;2023-08-01T07:51:36;8.33;;;2.73;;
61911;SDS011;49973;52.084;5.412;2023-08-01T07:54:05;7.40;;;3.00;;
61911;SDS011;49973;52.084;5.412;2023-08-01T07:56:33;4.70;;;2.20;;
61911;SDS011;49973;52.084;5.412;2023-08-01T07:59:02;5.87;;;2.57;;
61911;SDS011;49973;52.084;5.412;2023-08-01T08:01:32;10.53;;;2.33;;
61911;SDS011;49973;52.084;5.412;2023-08-01T08:04:01;8.37;;;2.83;;
61911;SDS011;49973;52.084;5.412;2023-08-01T08:06:30;8.47;;;2.60;;
61911;SDS011;49973;52.084;5.412;2023-08-01T08:08:58;6.40;;;2.43;;
61911;SDS011;49973;52.084;5.412;2023-08-01T08:11:27;5.00;;;2.33;;
61911;SDS011;49973;52.084;5.412;2023-08-01T08:13:56;12.07;;;2.47;;
61911;SDS011;49973;52.084;5.412;2023-08-01T08:16:25;7.93;;;2.57;;
61911;SDS011;49973;52.084;5.412;2023-08-01T08:18:55;4.23;;;1.90;;
61911;SDS011;49973;52.084;5.412;2023-08-01T08:21:24;6.37;;;1.83;;
61911;SDS011;49973;52.084;5.412;2023-08-01T08:23:52;5.33;;;2.00;;
61911;SDS011;49973;52.084;5.412;2023-08-01T08:26:21;4.90;;;1.60;;
61911;SDS011;49973;52.084;5.412;2023-08-01T08:28:50;7.73;;;2.00;;
61911;SDS011;49973;52.084;5.412;2023-08-01T08:31:19;1.83;;;1.33;;
61911;SDS011;49973;52.084;5.412;2023-08-01T08:33:48;7.07;;;2.30;;
61911;SDS011;49973;52.084;5.412;2023-08-01T08:36:18;6.47;;;1.70;;
61911;SDS011;49973;52.084;5.412;2023-08-01T08:38:47;12.20;;;2.23;;
61911;SDS011;49973;52.084;5.412;2023-08-01T08:41:19;4.47;;;2.17;;
61911;SDS011;49973;52.084;5.412;2023-08-01T08:43:49;5.60;;;1.67;;
61911;SDS011;49973;52.084;5.412;2023-08-01T08:46:23;8.23;;;1.83;;
61911;SDS011;49973;52.084;5.412;2023-08-01T08:48:56;4.97;;;1.83;;
61911;SDS011;49973;52.084;5.412;2023-08-01T08:51:27;4.77;;;1.50;;
61911;SDS011;49973;52.084;5.412;2023-08-01T08:53:57;3.47;;;1.27;;
61911;SDS011;49973;52.084;5.412;2023-08-01T08:56:28;3.70;;;1.60;;
61911;SDS011;49973;52.084;5.412;2023-08-01T08:58:58;6.87;;;1.73;;
61911;SDS011;49973;52.084;5.412;2023-08-01T09:01:27;5.73;;;1.60;;
61911;SDS011;49973;52.084;5.412;2023-08-01T09:03:58;5.50;;;1.60;;
61911;SDS011;49973;52.084;5.412;2023-08-01T09:06:29;5.70;;;1.67;;
61911;SDS011;49973;52.084;5.412;2023-08-01T09:09:01;5.30;;;1.40;;
61911;SDS011;49973;52.084;5.412;2023-08-01T09:11:38;4.37;;;1.60;;
61911;SDS011;49973;52.084;5.412;2023-08-01T09:14:08;2.50;;;1.07;;
61911;SDS011;49973;52.084;5.412;2023-08-01T09:16:39;7.27;;;1.93;;
61911;SDS011;49973;52.084;5.412;2023-08-01T09:19:09;9.53;;;2.33;;
61911;SDS011;49973;52.084;5.412;2023-08-01T09:21:41;1.77;;;1.50;;
61911;SDS011;49973;52.084;5.412;2023-08-01T09:24:10;3.83;;;1.57;;
61911;SDS011;49973;52.084;5.412;2023-08-01T09:26:41;3.43;;;1.47;;
61911;SDS011;49973;52.084;5.412;2023-08-01T09:29:11;2.43;;;1.20;;
61911;SDS011;49973;52.084;5.412;2023-08-01T09:31:40;1.87;;;1.00;;
61911;SDS011;49973;52.084;5.412;2023-08-01T09:34:17;4.20;;;1.37;;
61911;SDS011;49973;52.084;5.412;2023-08-01T09:36:49;5.47;;;1.50;;
61911;SDS011;49973;52.084;5.412;2023-08-01T09:39:19;5.17;;;1.40;;
61911;SDS011;49973;52.084;5.412;2023-08-01T09:41:54;5.13;;;1.13;;
61911;SDS011;49973;52.084;5.412;2023-08-01T09:44:24;4.07;;;1.40;;
61911;SDS011;49973;52.084;5.412;2023-08-01T09:46:55;1.77;;;1.43;;
61911;SDS011;49973;52.084;5.412;2023-08-01T09:49:24;8.47;;;1.40;;
61911;SDS011;49973;52.084;5.412;2023-08-01T09:51:54;1.90;;;1.37;;
61911;SDS011;49973;52.084;5.412;2023-08-01T09:54:23;6.33;;;1.60;;
61911;SDS011;49973;52.084;5.412;2023-08-01T09:56:53;10.37;;;2.43;;
61911;SDS011;49973;52.084;5.412;2023-08-01T09:59:23;3.43;;;1.60;;
61911;SDS011;49973;52.084;5.412;2023-08-01T10:01:53;6.83;;;1.30;;
61911;SDS011;49973;52.084;5.412;2023-08-01T10:04:23;3.23;;;1.77;;
61911;SDS011;49973;52.084;5.412;2023-08-01T10:06:57;5.67;;;1.50;;
61911;SDS011;49973;52.084;5.412;2023-08-01T10:09:27;3.80;;;1.73;;
61911;SDS011;49973;52.084;5.412;2023-08-01T10:11:58;2.43;;;1.17;;
61911;SDS011;49973;52.084;5.412;2023-08-01T10:14:27;9.70;;;3.17;;
61911;SDS011;49973;52.084;5.412;2023-08-01T10:16:56;4.33;;;1.50;;
61911;SDS011;49973;52.084;5.412;2023-08-01T10:19:25;9.83;;;1.70;;
61911;SDS011;49973;52.084;5.412;2023-08-01T10:21:55;3.87;;;1.10;;
61911;SDS011;49973;52.084;5.412;2023-08-01T10:24:25;2.87;;;1.17;;
61911;SDS011;49973;52.084;5.412;2023-08-01T10:26:55;4.37;;;1.23;;
61911;SDS011;49973;52.084;5.412;2023-08-01T10:29:34;3.40;;;1.20;;
61911;SDS011;49973;52.084;5.412;2023-08-01T10:32:05;4.33;;;1.60;;
61911;SDS011;49973;52.084;5.412;2023-08-01T10:34:35;4.10;;;1.73;;
61911;SDS011;49973;52.084;5.412;2023-08-01T10:37:05;3.57;;;1.60;;
61911;SDS011;49973;52.084;5.412;2023-08-01T10:39:34;5.60;;;1.23;;
61911;SDS011;49973;52.084;5.412;2023-08-01T10:42:03;4.93;;;1.40;;
61911;SDS011;49973;52.084;5.412;2023-08-01T10:44:44;4.20;;;1.13;;
61911;SDS011;49973;52.084;5.412;2023-08-01T10:47:13;5.37;;;0.90;;
61911;SDS011;49973;52.084;5.412;2023-08-01T10:49:43;2.80;;;1.30;;
61911;SDS011;49973;52.084;5.412;2023-08-01T10:52:17;3.53;;;0.97;;
61911;SDS011;49973;52.084;5.412;2023-08-01T10:54:55;1.57;;;0.90;;
61911;SDS011;49973;52.084;5.412;2023-08-01T10:57:26;6.70;;;1.53;;
61911;SDS011;49973;52.084;5.412;2023-08-01T10:59:55;6.20;;;1.37;;
61911;SDS011;49973;52.084;5.412;2023-08-01T11:02:25;4.33;;;1.13;;
61911;SDS011;49973;52.084;5.412;2023-08-01T11:04:56;4.50;;;1.03;;
61911;SDS011;49973;52.084;5.412;2023-08-01T11:07:27;6.73;;;1.10;;
61911;SDS011;49973;52.084;5.412;2023-08-01T11:10:06;2.10;;;0.70;;
61911;SDS011;49973;52.084;5.412;2023-08-01T11:12:36;4.33;;;1.20;;
61911;SDS011;49973;52.084;5.412;2023-08-01T11:15:06;5.13;;;1.20;;
61911;SDS011;49973;52.084;5.412;2023-08-01T11:17:36;2.20;;;1.00;;
61911;SDS011;49973;52.084;5.412;2023-08-01T11:20:07;3.00;;;1.37;;
61911;SDS011;49973;52.084;5.412;2023-08-01T11:22:49;3.37;;;1.10;;
61911;SDS011;49973;52.084;5.412;2023-08-01T11:25:19;4.23;;;0.97;;
61911;SDS011;49973;52.084;5.412;2023-08-01T11:27:48;4.70;;;1.17;;
61911;SDS011;49973;52.084;5.412;2023-08-01T11:30:16;1.50;;;1.20;;
61911;SDS011;49973;52.084;5.412;2023-08-01T11:32:45;3.50;;;1.57;;
61911;SDS011;49973;52.084;5.412;2023-08-01T11:35:16;7.27;;;1.43;;
61911;SDS011;49973;52.084;5.412;2023-08-01T11:37:49;2.73;;;1.50;;
61911;SDS011;49973;52.084;5.412;2023-08-01T11:40:18;3.17;;;1.30;;
61911;SDS011;49973;52.084;5.412;2023-08-01T11:42:48;5.20;;;1.47;;
61911;SDS011;49973;52.084;5.412;2023-08-01T11:45:19;4.27;;;0.97;;
61911;SDS011;49973;52.084;5.412;2023-08-01T11:47:48;7.77;;;1.80;;
61911;SDS011;49973;52.084;5.412;2023-08-01T11:50:20;8.00;;;1.47;;
61911;SDS011;49973;52.084;5.412;2023-08-01T11:52:51;5.73;;;1.77;;
61911;SDS011;49973;52.084;5.412;2023-08-01T11:55:21;6.50;;;1.77;;
61911;SDS011;49973;52.084;5.412;2023-08-01T11:57:52;1.90;;;1.07;;
61911;SDS011;49973;52.084;5.412;2023-08-01T12:00:22;3.40;;;1.00;;
61911;SDS011;49973;52.084;5.412;2023-08-01T12:03:02;2.80;;;1.10;;
61911;SDS011;49973;52.084;5.412;2023-08-01T12:05:32;5.00;;;1.70;;
61911;SDS011;49973;52.084;5.412;2023-08-01T12:08:09;2.20;;;1.23;;
61911;SDS011;49973;52.084;5.412;2023-08-01T12:10:39;12.63;;;1.50;;
61911;SDS011;49973;52.084;5.412;2023-08-01T12:13:19;5.70;;;1.33;;
61911;SDS011;49973;52.084;5.412;2023-08-01T12:15:48;5.17;;;1.23;;
61911;SDS011;49973;52.084;5.412;2023-08-01T12:18:21;7.23;;;1.50;;
61911;SDS011;49973;52.084;5.412;2023-08-01T12:21:11;5.67;;;1.13;;
61911;SDS011;49973;52.084;5.412;2023-08-01T12:23:41;6.87;;;1.60;;
61911;SDS011;49973;52.084;5.412;2023-08-01T12:26:10;3.77;;;1.30;;
61911;SDS011;49973;52.084;5.412;2023-08-01T12:28:38;4.27;;;1.50;;
61911;SDS011;49973;52.084;5.412;2023-08-01T12:31:07;5.30;;;1.10;;
61911;SDS011;49973;52.084;5.412;2023-08-01T12:33:36;3.77;;;1.17;;
61911;SDS011;49973;52.084;5.412;2023-08-01T12:36:04;7.67;;;1.50;;
61911;SDS011;49973;52.084;5.412;2023-08-01T12:38:33;3.70;;;1.30;;
61911;SDS011;49973;52.084;5.412;2023-08-01T12:41:03;4.90;;;1.00;;
61911;SDS011;49973;52.084;5.412;2023-08-01T12:43:33;5.53;;;1.73;;
61911;SDS011;49973;52.084;5.412;2023-08-01T12:46:02;2.77;;;1.67;;
61911;SDS011;49973;52.084;5.412;2023-08-01T12:48:31;4.70;;;1.17;;
61911;SDS011;49973;52.084;5.412;2023-08-01T12:51:00;3.33;;;1.10;;
61911;SDS011;49973;52.084;5.412;2023-08-01T12:53:30;3.90;;;1.73;;
61911;SDS011;49973;52.084;5.412;2023-08-01T12:56:05;3.40;;;1.13;;
61911;SDS011;49973;52.084;5.412;2023-08-01T12:58:34;5.73;;;1.60;;
61911;SDS011;49973;52.084;5.412;2023-08-01T13:01:03;3.30;;;1.40;;
61911;SDS011;49973;52.084;5.412;2023-08-01T13:03:32;5.83;;;1.30;;
61911;SDS011;49973;52.084;5.412;2023-08-01T13:06:01;1.90;;;1.20;;
61911;SDS011;49973;52.084;5.412;2023-08-01T13:08:30;2.80;;;1.00;;
61911;SDS011;49973;52.084;5.412;2023-08-01T13:11:01;4.83;;;1.30;;
61911;SDS011;49973;52.084;5.412;2023-08-01T13:13:38;2.40;;;0.97;;
61911;SDS011;49973;52.084;5.412;2023-08-01T13:16:08;2.93;;;0.93;;
61911;SDS011;49973;52.084;5.412;2023-08-01T13:18:37;2.73;;;1.23;;
61911;SDS011;49973;52.084;5.412;2023-08-01T13:21:12;3.80;;;1.50;;
61911;SDS011;49973;52.084;5.412;2023-08-01T13:23:41;11.57;;;1.90;;
61911;SDS011;49973;52.084;5.412;2023-08-01T13:26:09;4.57;;;1.50;;
61911;SDS011;49973;52.084;5.412;2023-08-01T13:28:40;5.50;;;1.47;;
61911;SDS011;49973;52.084;5.412;2023-08-01T13:31:09;5.60;;;1.60;;
61911;SDS011;49973;52.084;5.412;2023-08-01T13:33:39;9.23;;;2.40;;
61911;SDS011;49973;52.084;5.412;2023-08-01T13:36:08;5.33;;;1.37;;
61911;SDS011;49973;52.084;5.412;2023-08-01T13:38:36;5.30;;;2.03;;
61911;SDS011;49973;52.084;5.412;2023-08-01T13:41:05;6.77;;;1.63;;
61911;SDS011;49973;52.084;5.412;2023-08-01T13:43:34;8.83;;;1.80;;
61911;SDS011;49973;52.084;5.412;2023-08-01T13:46:09;2.30;;;1.30;;
61911;SDS011;49973;52.084;5.412;2023-08-01T13:48:54;4.83;;;1.50;;
61911;SDS011;49973;52.084;5.412;2023-08-01T13:51:23;3.57;;;1.57;;
61911;SDS011;49973;52.084;5.412;2023-08-01T13:53:52;6.17;;;1.37;;
61911;SDS011;49973;52.084;5.412;2023-08-01T13:56:22;4.73;;;1.30;;
61911;SDS011;49973;52.084;5.412;2023-08-01T13:58:51;2.30;;;1.50;;
61911;SDS011;49973;52.084;5.412;2023-08-01T14:01:22;2.30;;;0.97;;
61911;SDS011;49973;52.084;5.412;2023-08-01T14:03:50;2.50;;;1.10;;
61911;SDS011;49973;52.084;5.412;2023-08-01T14:06:19;3.00;;;1.20;;
61911;SDS011;49973;52.084;5.412;2023-08-01T14:08:48;5.87;;;1.50;;
61911;SDS011;49973;52.084;5.412;2023-08-01T14:11:17;4.43;;;1.07;;
61911;SDS011;49973;52.084;5.412;2023-08-01T14:13:46;3.67;;;1.07;;
61911;SDS011;49973;52.084;5.412;2023-08-01T14:16:14;7.53;;;1.30;;
61911;SDS011;49973;52.084;5.412;2023-08-01T14:18:45;3.27;;;1.23;;
61911;SDS011;49973;52.084;5.412;2023-08-01T14:21:14;3.67;;;1.40;;
61911;SDS011;49973;52.084;5.412;2023-08-01T14:23:43;8.37;;;1.30;;
61911;SDS011;49973;52.084;5.412;2023-08-01T14:26:11;9.63;;;1.50;;
61911;SDS011;49973;52.084;5.412;2023-08-01T14:28:40;4.00;;;1.30;;
61911;SDS011;49973;52.084;5.412;2023-08-01T14:31:09;7.37;;;1.47;;
61911;SDS011;49973;52.084;5.412;2023-08-01T14:33:38;2.20;;;1.23;;
61911;SDS011;49973;52.084;5.412;2023-08-01T14:36:08;2.50;;;1.20;;
61911;SDS011;49973;52.084;5.412;2023-08-01T14:38:39;5.97;;;1.70;;
61911;SDS011;49973;52.084;5.412;2023-08-01T14:41:08;3.03;;;1.30;;
61911;SDS011;49973;52.084;5.412;2023-08-01T14:43:57;10.47;;;1.57;;
61911;SDS011;49973;52.084;5.412;2023-08-01T14:46:25;3.90;;;1.17;;
61911;SDS011;49973;52.084;5.412;2023-08-01T14:48:54;6.73;;;1.53;;
61911;SDS011;49973;52.084;5.412;2023-08-01T14:51:24;3.63;;;1.30;;
61911;SDS011;49973;52.084;5.412;2023-08-01T14:53:53;6.17;;;1.50;;
61911;SDS011;49973;52.084;5.412;2023-08-01T14:56:22;4.33;;;1.33;;
61911;SDS011;49973;52.084;5.412;2023-08-01T14:58:51;9.37;;;1.37;;